sensor_id;sensor_type;location;lat;lon;timestamp;pressure;altitude;pressure_sealevel;temperature;humidity
67015;BME280;1033;52.560;13.374;2023-05-02T00:00:54;100757.56;;;12.85;53.97
67015;BME280;1033;52.560;13.374;2023-05-02T00:03:23;100767.91;;;12.70;54.98
67015;BME280;1033;52.560;13.374;2023-05-02T00:05:54;100764.59;;;12.68;54.86
67015;BME280;1033;52.560;13.374;2023-05-02T00:08:23;100760.28;;;12.53;54.93
67015;BME280;1033;52.560;13.374;2023-05-02T00:10:52;100759.31;;;12.35;55.75
67015;BME280;1033;52.560;13.374;2023-05-02T00:13:21;100762.50;;;12.25;56.51
67015;BME280;1033;52.560;13.374;2023-05-02T00:15:50;100761.34;;;12.14;56.67
67015;BME280;1033;52.560;13.374;2023-05-02T00:18:19;100757.59;;;12.09;56.99
67015;BME280;1033;52.560;13.374;2023-05-02T00:20:48;100755.09;;;12.01;57.24
67015;BME280;1033;52.560;13.374;2023-05-02T00:23:19;100758.81;;;12.13;56.76
67015;BME280;1033;52.560;13.374;2023-05-02T00:25:48;100757.44;;;12.35;55.96
67015;BME280;1033;52.560;13.374;2023-05-02T00:28:17;100758.16;;;12.24;56.34
67015;BME280;1033;52.560;13.374;2023-05-02T00:30:46;100753.41;;;12.13;57.25
67015;BME280;1033;52.560;13.374;2023-05-02T00:33:15;100748.38;;;12.16;56.41
67015;BME280;1033;52.560;13.374;2023-05-02T00:35:44;100752.19;;;12.02;57.01
67015;BME280;1033;52.560;13.374;2023-05-02T00:38:13;100754.31;;;12.00;56.99
67015;BME280;1033;52.560;13.374;2023-05-02T00:40:44;100754.56;;;12.30;56.45
67015;BME280;1033;52.560;13.374;2023-05-02T00:43:14;100762.97;;;12.15;55.91
67015;BME280;1033;52.560;13.374;2023-05-02T00:45:44;100752.09;;;12.22;55.57
67015;BME280;1033;52.560;13.374;2023-05-02T00:48:13;100755.66;;;12.16;55.77
67015;BME280;1033;52.560;13.374;2023-05-02T00:50:44;100762.19;;;12.08;55.68
67015;BME280;1033;52.560;13.374;2023-05-02T00:53:13;100755.09;;;12.01;56.14
67015;BME280;1033;52.560;13.374;2023-05-02T00:55:44;100766.19;;;11.93;56.44
67015;BME280;1033;52.560;13.374;2023-05-02T00:58:14;100757.09;;;11.81;56.60
67015;BME280;1033;52.560;13.374;2023-05-02T01:00:54;100763.50;;;11.86;56.68
67015;BME280;1033;52.560;13.374;2023-05-02T01:03:35;100753.09;;;11.83;56.50
67015;BME280;1033;52.560;13.374;2023-05-02T01:06:27;100756.44;;;11.72;56.80
67015;BME280;1033;52.560;13.374;2023-05-02T01:09:06;100757.28;;;11.86;56.96
67015;BME280;1033;52.560;13.374;2023-05-02T01:11:46;100754.13;;;11.89;56.43
67015;BME280;1033;52.560;13.374;2023-05-02T01:14:17;100754.38;;;11.81;56.80
67015;BME280;1033;52.560;13.374;2023-05-02T01:16:48;100756.88;;;11.69;57.70
67015;BME280;1033;52.560;13.374;2023-05-02T01:19:24;100760.56;;;11.94;57.03
67015;BME280;1033;52.560;13.374;2023-05-02T01:21:55;100768.84;;;12.12;56.83
67015;BME280;1033;52.560;13.374;2023-05-02T01:24:27;100765.53;;;12.04;57.51
67015;BME280;1033;52.560;13.374;2023-05-02T01:27:10;100753.97;;;12.22;56.63
67015;BME280;1033;52.560;13.374;2023-05-02T01:29:44;100761.38;;;12.39;56.28
67015;BME280;1033;52.560;13.374;2023-05-02T01:32:20;100764.00;;;12.21;57.20
67015;BME280;1033;52.560;13.374;2023-05-02T01:34:52;100764.56;;;12.30;56.59
67015;BME280;1033;52.560;13.374;2023-05-02T01:37:25;100772.50;;;12.31;57.30
67015;BME280;1033;52.560;13.374;2023-05-02T01:39:56;100773.31;;;12.38;56.62
67015;BME280;1033;52.560;13.374;2023-05-02T01:42:28;100772.50;;;12.31;56.92
67015;BME280;1033;52.560;13.374;2023-05-02T01:44:59;100776.53;;;12.15;57.83
67015;BME280;1033;52.560;13.374;2023-05-02T01:47:34;100781.31;;;12.20;57.50
67015;BME280;1033;52.560;13.374;2023-05-02T01:50:06;100786.94;;;12.25;57.62
67015;BME280;1033;52.560;13.374;2023-05-02T01:52:36;100791.34;;;12.19;57.73
67015;BME280;1033;52.560;13.374;2023-05-02T01:55:08;100791.38;;;12.06;58.46
67015;BME280;1033;52.560;13.374;2023-05-02T01:57:41;100797.44;;;12.15;58.44
67015;BME280;1033;52.560;13.374;2023-05-02T02:00:16;100789.09;;;12.10;58.59
67015;BME280;1033;52.560;13.374;2023-05-02T02:02:46;100788.84;;;12.18;58.60
67015;BME280;1033;52.560;13.374;2023-05-02T02:05:18;100794.34;;;12.05;59.00
67015;BME280;1033;52.560;13.374;2023-05-02T02:07:48;100788.47;;;12.08;59.08
67015;BME280;1033;52.560;13.374;2023-05-02T02:10:18;100801.19;;;12.07;59.36
67015;BME280;1033;52.560;13.374;2023-05-02T02:12:51;100804.50;;;12.16;59.09
67015;BME280;1033;52.560;13.374;2023-05-02T02:15:27;100805.59;;;12.08;59.38
67015;BME280;1033;52.560;13.374;2023-05-02T02:17:59;100803.06;;;12.07;59.63
67015;BME280;1033;52.560;13.374;2023-05-02T02:20:29;100812.25;;;12.06;59.97
67015;BME280;1033;52.560;13.374;2023-05-02T02:23:00;100814.56;;;11.96;60.28
67015;BME280;1033;52.560;13.374;2023-05-02T02:25:31;100817.97;;;11.85;60.99
67015;BME280;1033;52.560;13.374;2023-05-02T02:28:01;100825.69;;;11.81;61.23
67015;BME280;1033;52.560;13.374;2023-05-02T02:30:32;100817.75;;;11.80;61.07
67015;BME280;1033;52.560;13.374;2023-05-02T02:33:01;100815.47;;;11.76;61.49
67015;BME280;1033;52.560;13.374;2023-05-02T02:35:35;100815.22;;;11.71;61.71
67015;BME280;1033;52.560;13.374;2023-05-02T02:38:12;100820.88;;;11.63;61.65
67015;BME280;1033;52.560;13.374;2023-05-02T02:40:46;100834.44;;;11.63;61.66
67015;BME280;1033;52.560;13.374;2023-05-02T02:43:23;100836.97;;;11.52;62.43
67015;BME280;1033;52.560;13.374;2023-05-02T02:46:01;100843.00;;;11.47;62.69
67015;BME280;1033;52.560;13.374;2023-05-02T02:48:36;100848.63;;;11.46;62.92
67015;BME280;1033;52.560;13.374;2023-05-02T02:51:10;100850.28;;;11.40;63.08
67015;BME280;1033;52.560;13.374;2023-05-02T02:53:51;100852.38;;;11.38;63.29
67015;BME280;1033;52.560;13.374;2023-05-02T02:56:27;100856.53;;;11.34;63.36
67015;BME280;1033;52.560;13.374;2023-05-02T02:58:59;100859.28;;;11.27;63.78
67015;BME280;1033;52.560;13.374;2023-05-02T03:01:34;100866.13;;;11.23;63.94
67015;BME280;1033;52.560;13.374;2023-05-02T03:04:07;100863.63;;;11.22;63.94
67015;BME280;1033;52.560;13.374;2023-05-02T03:06:37;100880.28;;;11.19;64.13
67015;BME280;1033;52.560;13.374;2023-05-02T03:09:10;100882.13;;;11.05;64.47
67015;BME280;1033;52.560;13.374;2023-05-02T03:11:43;100882.34;;;11.04;64.60
67015;BME280;1033;52.560;13.374;2023-05-02T03:14:13;100885.47;;;11.01;64.48
67015;BME280;1033;52.560;13.374;2023-05-02T03:16:44;100892.34;;;11.03;64.82
67015;BME280;1033;52.560;13.374;2023-05-02T03:19:15;100891.28;;;10.91;65.45
67015;BME280;1033;52.560;13.374;2023-05-02T03:21:44;100902.53;;;10.95;65.39
67015;BME280;1033;52.560;13.374;2023-05-02T03:24:18;100893.16;;;10.90;65.57
67015;BME280;1033;52.560;13.374;2023-05-02T03:26:48;100910.63;;;10.81;65.87
67015;BME280;1033;52.560;13.374;2023-05-02T03:29:23;100914.13;;;10.75;66.40
67015;BME280;1033;52.560;13.374;2023-05-02T03:31:57;100912.88;;;10.71;66.56
67015;BME280;1033;52.560;13.374;2023-05-02T03:34:27;100924.25;;;10.60;67.33
67015;BME280;1033;52.560;13.374;2023-05-02T03:36:56;100924.25;;;10.60;67.47
67015;BME280;1033;52.560;13.374;2023-05-02T03:39:26;100927.00;;;10.67;67.52
67015;BME280;1033;52.560;13.374;2023-05-02T03:41:55;100916.78;;;10.62;67.54
67015;BME280;1033;52.560;13.374;2023-05-02T03:44:24;100928.44;;;10.63;67.82
67015;BME280;1033;52.560;13.374;2023-05-02T03:46:54;100930.97;;;10.71;67.32
67015;BME280;1033;52.560;13.374;2023-05-02T03:49:28;100940.50;;;10.60;67.83
67015;BME280;1033;52.560;13.374;2023-05-02T03:51:57;100941.78;;;10.64;68.19
67015;BME280;1033;52.560;13.374;2023-05-02T03:54:32;100937.22;;;10.71;67.89
67015;BME280;1033;52.560;13.374;2023-05-02T03:57:01;100941.16;;;10.62;68.13
67015;BME280;1033;52.560;13.374;2023-05-02T03:59:33;100933.63;;;10.58;69.21
67015;BME280;1033;52.560;13.374;2023-05-02T04:02:11;100935.78;;;10.75;68.10
67015;BME280;1033;52.560;13.374;2023-05-02T04:04:46;100950.59;;;10.79;68.04
67015;BME280;1033;52.560;13.374;2023-05-02T04:07:19;100958.09;;;10.77;68.30
67015;BME280;1033;52.560;13.374;2023-05-02T04:10:07;100950.00;;;10.84;68.33
67015;BME280;1033;52.560;13.374;2023-05-02T04:12:47;100955.19;;;10.85;68.64
67015;BME280;1033;52.560;13.374;2023-05-02T04:15:18;100956.66;;;10.88;68.81
67015;BME280;1033;52.560;13.374;2023-05-02T04:17:48;100959.22;;;11.03;68.47
67015;BME280;1033;52.560;13.374;2023-05-02T04:20:19;100968.19;;;11.10;68.51
67015;BME280;1033;52.560;13.374;2023-05-02T04:22:52;100971.97;;;11.22;67.93
67015;BME280;1033;52.560;13.374;2023-05-02T04:25:22;100970.31;;;11.21;68.14
67015;BME280;1033;52.560;13.374;2023-05-02T04:27:53;100980.34;;;11.27;67.82
67015;BME280;1033;52.560;13.374;2023-05-02T04:30:24;100981.59;;;11.31;67.58
67015;BME280;1033;52.560;13.374;2023-05-02T04:33:02;100992.84;;;11.34;67.67
67015;BME280;1033;52.560;13.374;2023-05-02T04:35:39;100996.03;;;11.51;67.61
67015;BME280;1033;52.560;13.374;2023-05-02T04:38:10;100992.97;;;11.81;66.73
67015;BME280;1033;52.560;13.374;2023-05-02T04:40:41;100989.19;;;11.75;66.18
67015;BME280;1033;52.560;13.374;2023-05-02T04:43:11;100995.66;;;11.94;65.73
67015;BME280;1033;52.560;13.374;2023-05-02T04:45:48;100996.47;;;12.20;64.70
67015;BME280;1033;52.560;13.374;2023-05-02T04:48:25;100995.84;;;12.38;64.11
67015;BME280;1033;52.560;13.374;2023-05-02T04:50:55;100998.75;;;12.37;63.52
67015;BME280;1033;52.560;13.374;2023-05-02T04:53:26;101017.03;;;12.81;62.17
67015;BME280;1033;52.560;13.374;2023-05-02T04:55:55;101013.50;;;12.74;62.25
67015;BME280;1033;52.560;13.374;2023-05-02T04:58:27;101019.13;;;12.79;62.21
67015;BME280;1033;52.560;13.374;2023-05-02T05:01:01;101023.16;;;12.56;62.14
67015;BME280;1033;52.560;13.374;2023-05-02T05:03:30;101027.09;;;12.67;62.08
67015;BME280;1033;52.560;13.374;2023-05-02T05:06:02;101022.75;;;12.40;62.68
67015;BME280;1033;52.560;13.374;2023-05-02T05:08:32;101030.25;;;12.51;62.08
67015;BME280;1033;52.560;13.374;2023-05-02T05:11:02;101031.94;;;12.45;62.84
67015;BME280;1033;52.560;13.374;2023-05-02T05:13:32;101039.25;;;12.25;63.19
67015;BME280;1033;52.560;13.374;2023-05-02T05:16:02;101044.84;;;12.70;61.66
67015;BME280;1033;52.560;13.374;2023-05-02T05:18:33;101049.22;;;12.64;61.73
67015;BME280;1033;52.560;13.374;2023-05-02T05:21:11;101051.38;;;12.03;63.78
67015;BME280;1033;52.560;13.374;2023-05-02T05:23:40;101054.09;;;12.03;64.17
67015;BME280;1033;52.560;13.374;2023-05-02T05:26:17;101058.47;;;11.91;64.47
67015;BME280;1033;52.560;13.374;2023-05-02T05:28:48;101062.81;;;11.79;65.27
67015;BME280;1033;52.560;13.374;2023-05-02T05:31:19;101055.94;;;11.76;65.48
67015;BME280;1033;52.560;13.374;2023-05-02T05:33:54;101070.06;;;11.71;65.85
67015;BME280;1033;52.560;13.374;2023-05-02T05:36:26;101073.88;;;11.97;65.44
67015;BME280;1033;52.560;13.374;2023-05-02T05:38:55;101073.91;;;12.03;64.96
67015;BME280;1033;52.560;13.374;2023-05-02T05:41:25;101081.41;;;12.21;65.32
67015;BME280;1033;52.560;13.374;2023-05-02T05:44:00;101081.63;;;12.26;64.70
67015;BME280;1033;52.560;13.374;2023-05-02T05:46:31;101087.69;;;12.28;64.71
67015;BME280;1033;52.560;13.374;2023-05-02T05:49:03;101096.03;;;12.46;64.83
67015;BME280;1033;52.560;13.374;2023-05-02T05:51:35;101086.19;;;12.72;63.84
67015;BME280;1033;52.560;13.374;2023-05-02T05:54:04;101096.84;;;12.80;63.65
67015;BME280;1033;52.560;13.374;2023-05-02T05:56:33;101102.06;;;12.81;64.04
67015;BME280;1033;52.560;13.374;2023-05-02T05:59:10;101122.09;;;12.74;64.01
67015;BME280;1033;52.560;13.374;2023-05-02T06:01:40;101122.97;;;12.61;64.48
67015;BME280;1033;52.560;13.374;2023-05-02T06:04:10;101121.06;;;12.75;64.20
67015;BME280;1033;52.560;13.374;2023-05-02T06:06:44;101125.47;;;12.76;64.24
67015;BME280;1033;52.560;13.374;2023-05-02T06:09:13;101128.78;;;12.84;64.30
67015;BME280;1033;52.560;13.374;2023-05-02T06:11:42;101136.09;;;12.84;64.59
67015;BME280;1033;52.560;13.374;2023-05-02T06:14:11;101145.25;;;13.09;64.13
67015;BME280;1033;52.560;13.374;2023-05-02T06:16:40;101142.34;;;13.11;64.26
67015;BME280;1033;52.560;13.374;2023-05-02T06:19:11;101152.09;;;13.44;63.75
67015;BME280;1033;52.560;13.374;2023-05-02T06:21:43;101153.25;;;13.62;62.77
67015;BME280;1033;52.560;13.374;2023-05-02T06:24:12;101166.13;;;13.28;64.70
67015;BME280;1033;52.560;13.374;2023-05-02T06:26:41;101175.34;;;13.27;65.46
67015;BME280;1033;52.560;13.374;2023-05-02T06:29:10;101178.69;;;13.23;66.08
67015;BME280;1033;52.560;13.374;2023-05-02T06:31:43;101170.78;;;13.21;66.32
67015;BME280;1033;52.560;13.374;2023-05-02T06:34:12;101183.09;;;12.97;67.08
67015;BME280;1033;52.560;13.374;2023-05-02T06:36:43;101189.38;;;12.72;68.20
67015;BME280;1033;52.560;13.374;2023-05-02T06:39:12;101190.41;;;12.51;68.94
67015;BME280;1033;52.560;13.374;2023-05-02T06:41:41;101201.47;;;12.49;69.52
67015;BME280;1033;52.560;13.374;2023-05-02T06:44:15;101200.88;;;12.67;69.57
67015;BME280;1033;52.560;13.374;2023-05-02T06:46:45;101206.91;;;12.56;69.80
67015;BME280;1033;52.560;13.374;2023-05-02T06:49:14;101205.25;;;12.48;69.97
67015;BME280;1033;52.560;13.374;2023-05-02T06:51:44;101214.44;;;12.74;69.32
67015;BME280;1033;52.560;13.374;2023-05-02T06:54:13;101205.66;;;12.85;68.93
67015;BME280;1033;52.560;13.374;2023-05-02T06:56:42;101211.94;;;12.92;68.91
67015;BME280;1033;52.560;13.374;2023-05-02T06:59:11;101223.84;;;12.91;68.94
67015;BME280;1033;52.560;13.374;2023-05-02T07:01:43;101217.56;;;12.84;69.83
67015;BME280;1033;52.560;13.374;2023-05-02T07:04:12;101221.16;;;12.78;69.75
67015;BME280;1033;52.560;13.374;2023-05-02T07:06:41;101229.91;;;13.06;69.06
67015;BME280;1033;52.560;13.374;2023-05-02T07:09:12;101234.19;;;13.73;66.75
67015;BME280;1033;52.560;13.374;2023-05-02T07:11:42;101244.31;;;13.39;67.67
67015;BME280;1033;52.560;13.374;2023-05-02T07:14:11;101244.28;;;13.46;67.82
67015;BME280;1033;52.560;13.374;2023-05-02T07:16:41;101238.78;;;13.79;66.91
67015;BME280;1033;52.560;13.374;2023-05-02T07:19:10;101245.75;;;14.06;66.17
67015;BME280;1033;52.560;13.374;2023-05-02T07:21:39;101252.97;;;13.81;66.99
67015;BME280;1033;52.560;13.374;2023-05-02T07:24:08;101251.09;;;13.75;66.90
67015;BME280;1033;52.560;13.374;2023-05-02T07:26:39;101254.59;;;13.95;66.84
67015;BME280;1033;52.560;13.374;2023-05-02T07:29:08;101257.88;;;14.10;65.64
67015;BME280;1033;52.560;13.374;2023-05-02T07:31:37;101255.41;;;14.02;65.98
67015;BME280;1033;52.560;13.374;2023-05-02T07:34:07;101261.66;;;14.09;66.01
67015;BME280;1033;52.560;13.374;2023-05-02T07:36:37;101254.22;;;14.29;65.53
67015;BME280;1033;52.560;13.374;2023-05-02T07:39:07;101255.16;;;14.55;64.08
67015;BME280;1033;52.560;13.374;2023-05-02T07:41:37;101259.56;;;14.56;64.17
67015;BME280;1033;52.560;13.374;2023-05-02T07:44:13;101264.56;;;14.90;63.34
67015;BME280;1033;52.560;13.374;2023-05-02T07:46:42;101268.88;;;14.98;62.61
67015;BME280;1033;52.560;13.374;2023-05-02T07:49:12;101275.88;;;14.87;63.25
67015;BME280;1033;52.560;13.374;2023-05-02T07:51:42;101286.06;;;14.98;62.93
67015;BME280;1033;52.560;13.374;2023-05-02T07:54:15;101283.09;;;14.75;63.53
67015;BME280;1033;52.560;13.374;2023-05-02T07:56:46;101278.97;;;14.66;64.00
67015;BME280;1033;52.560;13.374;2023-05-02T07:59:15;101292.53;;;14.41;64.87
67015;BME280;1033;52.560;13.374;2023-05-02T08:01:44;101275.63;;;14.64;64.93
67015;BME280;1033;52.560;13.374;2023-05-02T08:04:13;101289.59;;;14.74;63.73
67015;BME280;1033;52.560;13.374;2023-05-02T08:06:44;101288.75;;;14.42;64.74
67015;BME280;1033;52.560;13.374;2023-05-02T08:09:13;101296.47;;;14.52;64.92
67015;BME280;1033;52.560;13.374;2023-05-02T08:11:42;101293.91;;;14.88;62.76
67015;BME280;1033;52.560;13.374;2023-05-02T08:14:13;101295.31;;;14.66;62.57
67015;BME280;1033;52.560;13.374;2023-05-02T08:16:43;101298.66;;;14.68;62.98
67015;BME280;1033;52.560;13.374;2023-05-02T08:19:13;101309.63;;;14.55;63.44
67015;BME280;1033;52.560;13.374;2023-05-02T08:21:42;101306.56;;;14.76;63.42
67015;BME280;1033;52.560;13.374;2023-05-02T08:24:11;101315.44;;;14.96;62.86
67015;BME280;1033;52.560;13.374;2023-05-02T08:30:15;101328.34;;;14.38;65.14
67015;BME280;1033;52.560;13.374;2023-05-02T08:32:45;101328.59;;;14.23;65.83
67015;BME280;1033;52.560;13.374;2023-05-02T08:35:14;101327.34;;;14.26;66.58
67015;BME280;1033;52.560;13.374;2023-05-02T08:37:43;101340.94;;;14.32;66.78
67015;BME280;1033;52.560;13.374;2023-05-02T08:40:14;101345.16;;;14.22;67.08
67015;BME280;1033;52.560;13.374;2023-05-02T08:43:01;101351.63;;;14.21;67.44
67015;BME280;1033;52.560;13.374;2023-05-02T08:45:34;101347.16;;;13.75;68.07
67015;BME280;1033;52.560;13.374;2023-05-02T08:48:06;101344.63;;;13.87;68.51
67015;BME280;1033;52.560;13.374;2023-05-02T08:50:37;101356.97;;;13.76;68.53
67015;BME280;1033;52.560;13.374;2023-05-02T08:53:09;101354.88;;;13.85;68.69
67015;BME280;1033;52.560;13.374;2023-05-02T08:55:40;101355.94;;;13.71;69.17
67015;BME280;1033;52.560;13.374;2023-05-02T08:58:10;101364.72;;;13.86;69.08
67015;BME280;1033;52.560;13.374;2023-05-02T09:00:44;101363.81;;;14.05;68.86
67015;BME280;1033;52.560;13.374;2023-05-02T09:03:22;101366.78;;;13.97;69.11
67015;BME280;1033;52.560;13.374;2023-05-02T09:06:05;101366.34;;;14.13;68.64
67015;BME280;1033;52.560;13.374;2023-05-02T09:08:35;101379.84;;;14.33;68.19
67015;BME280;1033;52.560;13.374;2023-05-02T09:11:05;101381.53;;;14.34;67.78
67015;BME280;1033;52.560;13.374;2023-05-02T09:13:36;101389.69;;;14.34;67.50
67015;BME280;1033;52.560;13.374;2023-05-02T09:16:08;101401.53;;;13.95;69.18
67015;BME280;1033;52.560;13.374;2023-05-02T09:18:39;101398.19;;;13.80;70.09
67015;BME280;1033;52.560;13.374;2023-05-02T09:21:10;101410.56;;;13.63;71.45
67015;BME280;1033;52.560;13.374;2023-05-02T09:23:41;101405.31;;;13.61;71.58
67015;BME280;1033;52.560;13.374;2023-05-02T09:26:16;101411.81;;;13.86;71.25
67015;BME280;1033;52.560;13.374;2023-05-02T09:28:47;101416.19;;;13.94;70.65
67015;BME280;1033;52.560;13.374;2023-05-02T09:31:19;101408.44;;;13.91;70.41
67015;BME280;1033;52.560;13.374;2023-05-02T09:34:10;101423.72;;;13.85;70.89
67015;BME280;1033;52.560;13.374;2023-05-02T09:36:41;101421.41;;;14.02;70.77
67015;BME280;1033;52.560;13.374;2023-05-02T09:39:11;101424.94;;;14.22;70.08
67015;BME280;1033;52.560;13.374;2023-05-02T09:41:42;101423.06;;;14.23;69.64
67015;BME280;1033;52.560;13.374;2023-05-02T09:44:13;101431.75;;;14.58;68.66
67015;BME280;1033;52.560;13.374;2023-05-02T09:46:45;101423.31;;;15.10;66.06
67015;BME280;1033;52.560;13.374;2023-05-02T09:49:15;101427.38;;;15.33;64.70
67015;BME280;1033;52.560;13.374;2023-05-02T09:51:47;101424.59;;;15.39;64.99
67015;BME280;1033;52.560;13.374;2023-05-02T09:54:33;101430.84;;;15.15;64.16
67015;BME280;1033;52.560;13.374;2023-05-02T09:57:04;101427.59;;;14.93;64.93
67015;BME280;1033;52.560;13.374;2023-05-02T09:59:34;101439.22;;;15.45;64.31
67015;BME280;1033;52.560;13.374;2023-05-02T10:02:06;101433.78;;;15.76;61.52
67015;BME280;1033;52.560;13.374;2023-05-02T10:04:38;101438.56;;;15.56;62.39
67015;BME280;1033;52.560;13.374;2023-05-02T10:07:09;101441.66;;;15.28;63.90
67015;BME280;1033;52.560;13.374;2023-05-02T10:09:42;101447.34;;;14.82;65.36
67015;BME280;1033;52.560;13.374;2023-05-02T10:12:14;101453.69;;;14.76;65.44
67015;BME280;1033;52.560;13.374;2023-05-02T10:14:48;101463.56;;;14.64;65.30
67015;BME280;1033;52.560;13.374;2023-05-02T10:17:25;101471.41;;;14.41;66.37
67015;BME280;1033;52.560;13.374;2023-05-02T10:19:59;101472.00;;;14.49;66.84
67015;BME280;1033;52.560;13.374;2023-05-02T10:22:30;101486.28;;;14.05;68.45
67015;BME280;1033;52.560;13.374;2023-05-02T10:25:02;101477.94;;;14.13;69.25
67015;BME280;1033;52.560;13.374;2023-05-02T10:27:32;101479.53;;;14.34;68.39
67015;BME280;1033;52.560;13.374;2023-05-02T10:30:01;101487.75;;;14.14;68.99
67015;BME280;1033;52.560;13.374;2023-05-02T10:32:36;101500.13;;;13.97;69.23
67015;BME280;1033;52.560;13.374;2023-05-02T10:35:06;101505.06;;;13.41;70.77
67015;BME280;1033;52.560;13.374;2023-05-02T10:37:37;101516.63;;;12.95;73.08
67015;BME280;1033;52.560;13.374;2023-05-02T10:40:09;101515.31;;;12.85;73.79
67015;BME280;1033;52.560;13.374;2023-05-02T10:42:41;101529.88;;;12.36;75.71
67015;BME280;1033;52.560;13.374;2023-05-02T10:45:28;101525.97;;;12.17;76.42
67015;BME280;1033;52.560;13.374;2023-05-02T10:48:19;101528.88;;;12.16;77.28
67015;BME280;1033;52.560;13.374;2023-05-02T10:50:50;101537.81;;;12.38;76.78
67015;BME280;1033;52.560;13.374;2023-05-02T10:53:27;101546.97;;;12.64;75.11
67015;BME280;1033;52.560;13.374;2023-05-02T10:56:12;101553.66;;;12.34;75.47
67015;BME280;1033;52.560;13.374;2023-05-02T10:58:43;101568.38;;;11.97;77.98
67015;BME280;1033;52.560;13.374;2023-05-02T11:01:31;101561.31;;;11.60;79.02
67015;BME280;1033;52.560;13.374;2023-05-02T11:04:06;101568.88;;;11.65;79.02
67015;BME280;1033;52.560;13.374;2023-05-02T11:07:15;101570.28;;;11.25;79.29
67015;BME280;1033;52.560;13.374;2023-05-02T11:09:31;101578.38;;;11.40;78.41
67015;BME280;1033;52.560;13.374;2023-05-02T11:12:03;101582.38;;;11.08;78.29
67015;BME280;1033;52.560;13.374;2023-05-02T11:14:43;101575.69;;;10.89;78.00
67015;BME280;1033;52.560;13.374;2023-05-02T11:17:23;101584.59;;;11.19;75.78
67015;BME280;1033;52.560;13.374;2023-05-02T11:20:25;101593.03;;;11.45;74.54
67015;BME280;1033;52.560;13.374;2023-05-02T11:22:58;101587.75;;;11.58;72.65
67015;BME280;1033;52.560;13.374;2023-05-02T11:25:33;101590.59;;;11.71;71.11
67015;BME280;1033;52.560;13.374;2023-05-02T11:28:07;101589.72;;;11.64;70.61
67015;BME280;1033;52.560;13.374;2023-05-02T11:30:56;101589.13;;;11.84;69.28
67015;BME280;1033;52.560;13.374;2023-05-02T11:33:26;101604.47;;;12.19;66.77
67015;BME280;1033;52.560;13.374;2023-05-02T11:35:57;101600.66;;;11.92;66.42
67015;BME280;1033;52.560;13.374;2023-05-02T11:38:35;101601.88;;;12.32;65.75
67015;BME280;1033;52.560;13.374;2023-05-02T11:41:05;101614.94;;;12.78;64.36
67015;BME280;1033;52.560;13.374;2023-05-02T11:43:34;101612.56;;;13.02;61.75
67015;BME280;1033;52.560;13.374;2023-05-02T11:46:05;101616.97;;;12.69;61.27
67015;BME280;1033;52.560;13.374;2023-05-02T11:48:35;101608.88;;;12.48;62.08
67015;BME280;1033;52.560;13.374;2023-05-02T11:51:06;101601.63;;;12.83;60.79
67015;BME280;1033;52.560;13.374;2023-05-02T11:53:40;101614.47;;;13.08;59.91
67015;BME280;1033;52.560;13.374;2023-05-02T11:56:09;101611.63;;;12.82;60.45
67015;BME280;1033;52.560;13.374;2023-05-02T11:58:38;101613.81;;;13.00;60.30
67015;BME280;1033;52.560;13.374;2023-05-02T12:01:12;101611.53;;;13.38;58.72
67015;BME280;1033;52.560;13.374;2023-05-02T12:03:45;101625.31;;;12.68;60.36
67015;BME280;1033;52.560;13.374;2023-05-02T12:06:18;101626.50;;;12.93;61.30
67015;BME280;1033;52.560;13.374;2023-05-02T12:08:47;101629.25;;;12.37;61.07
67015;BME280;1033;52.560;13.374;2023-05-02T12:11:17;101629.16;;;12.24;61.69
67015;BME280;1033;52.560;13.374;2023-05-02T12:13:47;101628.88;;;12.68;60.63
67015;BME280;1033;52.560;13.374;2023-05-02T12:16:17;101636.69;;;12.84;59.28
67015;BME280;1033;52.560;13.374;2023-05-02T12:18:47;101645.38;;;12.67;59.70
67015;BME280;1033;52.560;13.374;2023-05-02T12:21:18;101654.22;;;13.10;58.00
67015;BME280;1033;52.560;13.374;2023-05-02T12:23:47;101646.28;;;12.80;58.98
67015;BME280;1033;52.560;13.374;2023-05-02T12:26:17;101645.69;;;13.13;58.41
67015;BME280;1033;52.560;13.374;2023-05-02T12:28:49;101647.13;;;12.81;58.77
67015;BME280;1033;52.560;13.374;2023-05-02T12:31:18;101646.13;;;13.16;58.14
67015;BME280;1033;52.560;13.374;2023-05-02T12:33:48;101653.31;;;13.30;57.64
67015;BME280;1033;52.560;13.374;2023-05-02T12:36:20;101650.94;;;13.55;57.01
67015;BME280;1033;52.560;13.374;2023-05-02T12:38:51;101661.81;;;13.55;56.38
67015;BME280;1033;52.560;13.374;2023-05-02T12:41:37;101662.50;;;13.29;56.66
67015;BME280;1033;52.560;13.374;2023-05-02T12:44:10;101662.28;;;12.96;57.81
67015;BME280;1033;52.560;13.374;2023-05-02T12:46:57;101653.38;;;13.09;57.51
67015;BME280;1033;52.560;13.374;2023-05-02T12:49:27;101663.72;;;13.20;56.92
67015;BME280;1033;52.560;13.374;2023-05-02T12:51:57;101665.13;;;13.57;56.33
67015;BME280;1033;52.560;13.374;2023-05-02T12:54:26;101667.38;;;14.01;55.08
67015;BME280;1033;52.560;13.374;2023-05-02T12:56:56;101672.00;;;14.14;53.77
67015;BME280;1033;52.560;13.374;2023-05-02T12:59:26;101678.50;;;14.13;53.77
67015;BME280;1033;52.560;13.374;2023-05-02T13:01:56;101669.22;;;13.33;54.90
67015;BME280;1033;52.560;13.374;2023-05-02T13:04:33;101675.66;;;12.98;56.00
67015;BME280;1033;52.560;13.374;2023-05-02T13:07:04;101674.56;;;12.58;56.94
67015;BME280;1033;52.560;13.374;2023-05-02T13:09:33;101676.00;;;12.33;57.52
67015;BME280;1033;52.560;13.374;2023-05-02T13:12:03;101678.13;;;12.93;56.36
67015;BME280;1033;52.560;13.374;2023-05-02T13:14:32;101682.06;;;13.12;55.85
67015;BME280;1033;52.560;13.374;2023-05-02T13:17:01;101686.50;;;13.19;55.02
67015;BME280;1033;52.560;13.374;2023-05-02T13:19:31;101693.22;;;13.23;54.75